Time;durP1;ratioP1;P1;durP2;ratioP2;P2;SDS_P1;SDS_P2;PMS_P1;PMS_P2;Temp;Humidity;BMP_temperature;BMP_pressure;BME280_temperature;BME280_humidity;BME280_pressure;Samples;Min_cycle;Max_cycle;Signal;HPM_P1;HPM_P2
2023/10/30 00:01:15;;;;;;;0.10;0.10;;;13.10;99.90;;;;;;5063033;28;20212;-79
2023/10/30 00:03:41;;;;;;;0.00;0.00;;;13.10;99.90;;;;;;5069869;28;20230;-79
2023/10/30 00:06:06;;;;;;;0.10;0.10;;;13.20;99.90;;;;;;5070295;28;20187;-79
2023/10/30 00:08:32;;;;;;;0.10;0.10;;;12.90;99.90;;;;;;5069431;28;20255;-79
2023/10/30 00:10:57;;;;;;;0.10;0.10;;;12.70;99.90;;;;;;5070384;28;20295;-79
2023/10/30 00:13:23;;;;;;;0.10;0.10;;;12.80;99.90;;;;;;5071995;28;20188;-80
2023/10/30 00:15:49;;;;;;;0.10;0.10;;;12.90;99.90;;;;;;5072416;28;20180;-80
2023/10/30 00:18:14;;;;;;;0.10;0.10;;;12.90;99.90;;;;;;5071194;28;20189;-79
2023/10/30 00:20:40;;;;;;;0.00;0.00;;;13.00;99.90;;;;;;5072711;28;20214;-79
2023/10/30 00:23:05;;;;;;;0.10;0.10;;;12.90;99.90;;;;;;5066312;28;20643;-80
2023/10/30 00:25:31;;;;;;;0.10;0.10;;;12.80;99.90;;;;;;5073484;28;20223;-79
2023/10/30 00:27:59;;;;;;;0.10;0.10;;;12.80;99.90;;;;;;5063759;28;20187;-79
2023/10/30 00:30:26;;;;;;;0.10;0.10;;;12.80;99.90;;;;;;5070544;28;20231;-79
2023/10/30 00:32:52;;;;;;;0.10;0.10;;;12.80;99.90;;;;;;5068448;28;20190;-79
2023/10/30 00:35:17;;;;;;;0.10;0.10;;;12.70;99.90;;;;;;5069651;28;20249;-79
2023/10/30 00:37:43;;;;;;;0.10;0.10;;;12.80;99.90;;;;;;5065255;28;20193;-79
2023/10/30 00:40:10;;;;;;;0.10;0.10;;;12.80;99.90;;;;;;5063955;28;20176;-79
2023/10/30 00:42:35;;;;;;;0.10;0.10;;;12.60;99.90;;;;;;5068505;28;20711;-79
2023/10/30 00:45:04;;;;;;;0.10;0.10;;;12.60;99.90;;;;;;5069126;28;20201;-79
2023/10/30 00:47:29;;;;;;;0.10;0.10;;;12.70;99.90;;;;;;5068997;28;20632;-79
2023/10/30 00:49:55;;;;;;;0.10;0.10;;;12.80;99.90;;;;;;5064447;28;20275;-80
2023/10/30 00:52:20;;;;;;;0.10;0.10;;;12.70;99.90;;;;;;5068193;28;20174;-79
2023/10/30 00:54:46;;;;;;;0.10;0.10;;;12.70;99.90;;;;;;5065166;28;20191;-79
2023/10/30 00:57:12;;;;;;;0.10;0.10;;;12.80;99.90;;;;;;5068996;28;20627;-79
2023/10/30 00:59:37;;;;;;;0.10;0.10;;;12.90;99.90;;;;;;5069994;28;20182;-79
2023/10/30 01:02:03;;;;;;;0.10;0.10;;;13.00;99.90;;;;;;5068685;28;21023;-79
2023/10/30 01:04:28;;;;;;;0.10;0.10;;;13.00;99.90;;;;;;5070394;28;20555;-79
2023/10/30 01:06:54;;;;;;;0.10;0.10;;;13.00;99.90;;;;;;5069408;28;20187;-79
2023/10/30 01:09:20;;;;;;;0.10;0.10;;;13.00;99.90;;;;;;5068654;28;20263;-79
2023/10/30 01:11:45;;;;;;;0.10;0.10;;;13.10;99.90;;;;;;5068731;28;20235;-78
2023/10/30 01:14:11;;;;;;;0.10;0.10;;;13.00;99.90;;;;;;5069835;28;20185;-79
2023/10/30 01:16:36;;;;;;;0.10;0.10;;;13.00;99.90;;;;;;5068854;28;20651;-80
2023/10/30 01:19:02;;;;;;;0.10;0.10;;;13.00;99.90;;;;;;5071465;28;20182;-80
2023/10/30 01:21:27;;;;;;;0.10;0.10;;;13.00;99.90;;;;;;5063495;28;20236;-80
2023/10/30 01:23:53;;;;;;;0.10;0.10;;;13.10;99.90;;;;;;5066998;28;20212;-79
2023/10/30 01:26:18;;;;;;;0.10;0.10;;;13.10;99.90;;;;;;5066896;28;20244;-79
2023/10/30 01:28:44;;;;;;;0.00;0.00;;;13.20;99.90;;;;;;5070470;28;20180;-80
2023/10/30 01:31:09;;;;;;;0.10;0.10;;;13.10;99.90;;;;;;5072665;28;20730;-79
2023/10/30 01:33:35;;;;;;;0.10;0.10;;;13.10;99.90;;;;;;5072636;28;20270;-80
2023/10/30 01:36:00;;;;;;;0.10;0.10;;;13.20;99.90;;;;;;5073072;28;20175;-79
2023/10/30 01:38:26;;;;;;;0.10;0.10;;;13.20;99.90;;;;;;5072577;28;20183;-79
2023/10/30 01:40:52;;;;;;;0.10;0.10;;;13.20;99.90;;;;;;5071674;28;20206;-80
2023/10/30 01:43:31;;;;;;;0.10;0.10;;;13.20;99.90;;;;;;5071682;28;20198;-79
2023/10/30 01:45:57;;;;;;;0.10;0.10;;;13.30;99.90;;;;;;5068762;28;20645;-79
2023/10/30 01:48:27;;;;;;;0.10;0.10;;;13.20;99.90;;;;;;5063823;28;20191;-79
2023/10/30 01:50:53;;;;;;;0.10;0.10;;;13.20;99.90;;;;;;5063415;28;20310;-79
2023/10/30 01:53:20;;;;;;;0.10;0.10;;;13.20;99.90;;;;;;5070850;28;20188;-79
2023/10/30 01:55:47;;;;;;;0.10;0.10;;;13.20;99.90;;;;;;5068955;28;20186;-79
2023/10/30 01:58:13;;;;;;;0.10;0.10;;;13.20;99.90;;;;;;5066827;28;20339;-79
2023/10/30 02:00:39;;;;;;;0.10;0.10;;;13.20;99.90;;;;;;5067263;28;20210;-79
2023/10/30 02:03:04;;;;;;;0.10;0.10;;;13.20;99.90;;;;;;5069989;28;20287;-80
2023/10/30 02:05:30;;;;;;;0.10;0.10;;;13.20;99.90;;;;;;5072427;28;20223;-80
2023/10/30 02:07:56;;;;;;;0.10;0.10;;;13.30;99.90;;;;;;5064835;28;20187;-79
2023/10/30 02:10:22;;;;;;;0.10;0.10;;;13.20;99.90;;;;;;5063197;28;20212;-79
2023/10/30 02:12:50;;;;;;;0.10;0.10;;;13.20;99.90;;;;;;5068912;28;20187;-79
2023/10/30 02:15:16;;;;;;;0.10;0.10;;;13.30;99.90;;;;;;5068241;28;20276;-79
2023/10/30 02:17:42;;;;;;;0.10;0.10;;;13.30;99.90;;;;;;5068188;28;20188;-79
2023/10/30 02:20:08;;;;;;;0.10;0.10;;;13.30;99.90;;;;;;5067771;28;20178;-79
2023/10/30 02:22:34;;;;;;;0.10;0.10;;;13.30;99.90;;;;;;5066216;28;20199;-79
2023/10/30 02:25:00;;;;;;;0.10;0.10;;;13.30;99.90;;;;;;5071233;28;20210;-79
2023/10/30 02:27:25;;;;;;;0.10;0.10;;;13.30;99.90;;;;;;5067892;28;20192;-79
2023/10/30 02:29:51;;;;;;;0.10;0.10;;;13.30;99.90;;;;;;5068548;28;20234;-79
2023/10/30 02:32:16;;;;;;;0.10;0.10;;;13.30;99.90;;;;;;5063082;28;20700;-79
2023/10/30 02:34:42;;;;;;;0.10;0.10;;;13.30;99.90;;;;;;5070010;28;20191;-79
2023/10/30 02:37:07;;;;;;;0.10;0.10;;;13.30;99.90;;;;;;5066563;28;20185;-79
2023/10/30 02:39:34;;;;;;;0.10;0.10;;;13.30;99.90;;;;;;5066940;28;20188;-79
2023/10/30 02:42:01;;;;;;;0.10;0.10;;;13.30;99.90;;;;;;5069358;28;20290;-79
2023/10/30 02:44:28;;;;;;;0.10;0.10;;;13.30;99.90;;;;;;5067851;28;20203;-79
2023/10/30 02:46:54;;;;;;;0.10;0.10;;;13.30;99.90;;;;;;5061654;28;20176;-79
2023/10/30 02:49:20;;;;;;;0.10;0.10;;;13.30;99.90;;;;;;5070433;28;20196;-79
2023/10/30 02:51:45;;;;;;;0.10;0.10;;;13.30;99.90;;;;;;5069890;28;20207;-79
2023/10/30 02:54:11;;;;;;;0.10;0.10;;;13.20;99.90;;;;;;5063384;28;20179;-79
2023/10/30 02:56:36;;;;;;;0.10;0.10;;;13.20;99.90;;;;;;5068418;28;20270;-79
2023/10/30 02:59:02;;;;;;;0.10;0.10;;;13.20;99.90;;;;;;5069649;28;20190;-79
2023/10/30 03:01:28;;;;;;;0.10;0.10;;;13.20;99.90;;;;;;5072761;28;20260;-79
2023/10/30 03:03:54;;;;;;;0.10;0.10;;;13.20;99.90;;;;;;5070431;28;20223;-79
2023/10/30 03:06:20;;;;;;;0.10;0.10;;;13.20;99.90;;;;;;5065894;28;20298;-79
2023/10/30 03:08:45;;;;;;;0.10;0.10;;;13.10;99.90;;;;;;5073230;28;20190;-79
2023/10/30 03:11:11;;;;;;;0.10;0.10;;;13.10;99.90;;;;;;5073767;28;20219;-79
2023/10/30 03:13:37;;;;;;;0.10;0.10;;;13.10;99.90;;;;;;5074171;28;20662;-79
2023/10/30 03:16:02;;;;;;;0.10;0.10;;;13.10;99.90;;;;;;5070228;28;20186;-79
2023/10/30 03:18:28;;;;;;;0.00;0.00;;;13.00;99.90;;;;;;5071779;28;20186;-79
2023/10/30 03:20:54;;;;;;;0.10;0.10;;;13.00;99.90;;;;;;5072539;28;20199;-79
2023/10/30 03:23:20;;;;;;;0.10;0.10;;;13.00;99.90;;;;;;5069783;28;20233;-78
2023/10/30 03:25:46;;;;;;;0.10;0.10;;;13.00;99.90;;;;;;5065544;28;20197;-79
2023/10/30 03:28:12;;;;;;;0.10;0.10;;;13.00;99.90;;;;;;5073071;28;20171;-79
2023/10/30 03:30:37;;;;;;;0.10;0.10;;;13.00;99.90;;;;;;5075008;28;20212;-79
2023/10/30 03:33:04;;;;;;;0.10;0.10;;;13.00;99.90;;;;;;5072536;28;20224;-79
2023/10/30 03:35:30;;;;;;;0.10;0.10;;;12.90;99.90;;;;;;5067442;28;20187;-79
2023/10/30 03:37:55;;;;;;;0.00;0.00;;;12.90;99.90;;;;;;5073592;28;20699;-77
2023/10/30 03:40:21;;;;;;;0.10;0.10;;;13.00;99.90;;;;;;5071877;28;20237;-76
2023/10/30 03:42:46;;;;;;;0.10;0.10;;;12.90;99.90;;;;;;5072297;28;20195;-76
2023/10/30 03:45:13;;;;;;;0.10;0.10;;;12.90;99.90;;;;;;5070258;28;21098;-77
2023/10/30 03:47:39;;;;;;;0.10;0.10;;;12.90;99.90;;;;;;5069869;28;20188;-77
2023/10/30 03:50:06;;;;;;;0.10;0.10;;;13.00;99.90;;;;;;5068395;28;20567;-76
2023/10/30 03:52:31;;;;;;;0.10;0.10;;;12.90;99.90;;;;;;5070757;28;20635;-77
2023/10/30 03:55:03;;;;;;;0.10;0.10;;;12.90;99.90;;;;;;5073495;28;20216;-76
2023/10/30 03:57:29;;;;;;;0.10;0.10;;;12.90;99.90;;;;;;5084373;28;20182;-77
2023/10/30 03:59:56;;;;;;;0.10;0.10;;;12.80;99.90;;;;;;5076039;28;20729;-77
2023/10/30 04:02:22;;;;;;;0.00;0.00;;;12.80;99.90;;;;;;5069048;28;20350;-77
2023/10/30 04:04:47;;;;;;;0.10;0.10;;;12.80;99.90;;;;;;5070722;28;20300;-78
2023/10/30 04:07:13;;;;;;;0.10;0.10;;;12.90;99.90;;;;;;5066129;28;20607;-79
2023/10/30 04:09:38;;;;;;;0.10;0.10;;;12.80;99.90;;;;;;5065200;28;20182;-79
2023/10/30 04:12:04;;;;;;;0.10;0.10;;;12.80;99.90;;;;;;5068591;28;20223;-79
2023/10/30 04:14:30;;;;;;;0.00;0.00;;;12.80;99.90;;;;;;5066036;28;20195;-79
2023/10/30 04:16:57;;;;;;;0.10;0.10;;;12.80;99.90;;;;;;5069884;28;20206;-79
2023/10/30 04:19:23;;;;;;;0.10;0.10;;;12.90;99.90;;;;;;5071201;28;20192;-79
2023/10/30 04:21:48;;;;;;;0.10;0.10;;;12.80;99.90;;;;;;5070164;28;20198;-79
2023/10/30 04:24:14;;;;;;;0.10;0.10;;;12.70;99.90;;;;;;5062419;28;20724;-79
2023/10/30 04:26:39;;;;;;;0.10;0.10;;;12.70;99.90;;;;;;5066516;28;20183;-79
2023/10/30 04:29:05;;;;;;;0.10;0.10;;;12.70;99.90;;;;;;5065303;28;20186;-79
2023/10/30 04:31:30;;;;;;;0.10;0.10;;;12.70;99.90;;;;;;5065084;28;20207;-79
2023/10/30 04:33:56;;;;;;;0.10;0.10;;;12.70;99.90;;;;;;5069252;28;20188;-79
2023/10/30 04:36:21;;;;;;;0.10;0.10;;;12.60;99.90;;;;;;5068524;28;20255;-79
2023/10/30 04:38:49;;;;;;;0.10;0.10;;;12.60;99.90;;;;;;5070029;28;20182;-79
2023/10/30 04:41:15;;;;;;;0.10;0.10;;;12.60;99.90;;;;;;5061752;28;20212;-79
2023/10/30 04:43:41;;;;;;;0.00;0.00;;;12.60;99.90;;;;;;5059711;28;20190;-79
2023/10/30 04:46:06;;;;;;;0.00;0.00;;;12.60;99.90;;;;;;5064312;28;20193;-79
2023/10/30 04:48:32;;;;;;;0.10;0.10;;;12.60;99.90;;;;;;5061714;28;20224;-79
2023/10/30 04:50:58;;;;;;;0.10;0.10;;;12.60;99.90;;;;;;5068960;28;20225;-79
2023/10/30 04:53:24;;;;;;;0.03;0.03;;;12.60;99.90;;;;;;5063932;28;20181;-79
2023/10/30 04:55:51;;;;;;;0.10;0.10;;;12.70;99.90;;;;;;5063007;28;21740;-78
2023/10/30 04:58:17;;;;;;;0.10;0.10;;;12.70;99.90;;;;;;5066958;28;20211;-80
2023/10/30 05:00:43;;;;;;;0.10;0.10;;;12.70;99.90;;;;;;5066947;28;20205;-80
2023/10/30 05:03:12;;;;;;;0.10;0.10;;;12.70;99.90;;;;;;5062219;28;20190;-79
2023/10/30 05:05:37;;;;;;;0.10;0.10;;;12.70;99.90;;;;;;5083804;28;20258;-79
2023/10/30 05:08:04;;;;;;;0.10;0.10;;;12.70;99.90;;;;;;5065154;28;20193;-79
2023/10/30 05:10:29;;;;;;;0.07;0.07;;;12.60;99.90;;;;;;5069510;28;20201;-79
2023/10/30 05:12:55;;;;;;;0.10;0.10;;;12.70;99.90;;;;;;5066842;28;20178;-79
2023/10/30 05:15:23;;;;;;;0.10;0.10;;;12.70;99.90;;;;;;5060316;28;20231;-80
2023/10/30 05:17:49;;;;;;;0.10;0.10;;;12.70;99.90;;;;;;5061798;28;20248;-79
2023/10/30 05:20:15;;;;;;;0.10;0.10;;;12.70;99.90;;;;;;5068368;28;20285;-79
2023/10/30 05:22:42;;;;;;;0.10;0.10;;;12.80;99.90;;;;;;5068644;28;20239;-79
2023/10/30 05:25:08;;;;;;;0.10;0.10;;;12.70;99.90;;;;;;5067969;28;20272;-79
2023/10/30 05:27:34;;;;;;;0.10;0.10;;;12.70;99.90;;;;;;5068661;28;20184;-79
2023/10/30 05:30:00;;;;;;;0.10;0.10;;;12.80;99.90;;;;;;5064901;28;20727;-79
2023/10/30 05:32:26;;;;;;;0.10;0.10;;;12.70;99.90;;;;;;5067621;28;20680;-79
2023/10/30 05:34:54;;;;;;;0.10;0.10;;;12.80;99.90;;;;;;5060753;28;20195;-79
2023/10/30 05:37:20;;;;;;;0.10;0.10;;;12.70;99.90;;;;;;5063295;28;20683;-79
2023/10/30 05:39:46;;;;;;;0.10;0.10;;;12.80;99.90;;;;;;5064334;28;20188;-79
2023/10/30 05:42:12;;;;;;;0.10;0.10;;;12.70;99.90;;;;;;5061848;28;20220;-79
2023/10/30 05:44:37;;;;;;;0.10;0.10;;;12.70;99.90;;;;;;5063623;28;20704;-80
2023/10/30 05:47:03;;;;;;;0.10;0.10;;;12.70;99.90;;;;;;5067411;28;20260;-79
2023/10/30 05:49:29;;;;;;;0.10;0.10;;;12.70;99.90;;;;;;5060004;28;20816;-80
2023/10/30 05:51:55;;;;;;;0.10;0.10;;;12.70;99.90;;;;;;5082653;28;20208;-79
2023/10/30 05:54:22;;;;;;;0.10;0.10;;;12.70;99.90;;;;;;5066888;28;20561;-78
2023/10/30 05:56:47;;;;;;;0.10;0.10;;;12.70;99.90;;;;;;5065779;28;20255;-80
2023/10/30 05:59:13;;;;;;;0.10;0.10;;;12.70;99.90;;;;;;5069140;28;20242;-80
2023/10/30 06:01:38;;;;;;;0.10;0.10;;;12.70;99.90;;;;;;5060975;28;20619;-79
2023/10/30 06:04:04;;;;;;;0.10;0.10;;;12.80;99.90;;;;;;5068076;28;20200;-80
2023/10/30 06:06:30;;;;;;;0.10;0.10;;;12.70;99.90;;;;;;5064983;28;20185;-79
2023/10/30 06:08:56;;;;;;;0.10;0.10;;;12.70;99.90;;;;;;5060733;28;20185;-79
2023/10/30 06:11:21;;;;;;;0.10;0.10;;;12.70;99.90;;;;;;5061462;28;20224;-79
2023/10/30 06:13:47;;;;;;;0.10;0.10;;;12.80;99.90;;;;;;5062896;28;20185;-79
2023/10/30 06:16:22;;;;;;;0.10;0.10;;;12.80;99.90;;;;;;5062260;28;20877;-79
2023/10/30 06:18:47;;;;;;;0.10;0.10;;;12.80;99.90;;;;;;5060306;28;20202;-79
2023/10/30 06:21:17;;;;;;;0.10;0.10;;;12.80;99.90;;;;;;5066188;28;20846;-80
2023/10/30 06:23:43;;;;;;;0.10;0.10;;;12.80;99.90;;;;;;5068531;28;20210;-80
2023/10/30 06:26:10;;;;;;;0.10;0.10;;;12.80;99.90;;;;;;5061113;28;20238;-80
2023/10/30 06:28:37;;;;;;;0.10;0.10;;;12.80;99.90;;;;;;5065890;28;20186;-80
2023/10/30 06:31:13;;;;;;;0.10;0.10;;;12.70;99.90;;;;;;5065176;28;20206;-80
2023/10/30 06:33:39;;;;;;;0.10;0.10;;;12.70;99.90;;;;;;5068105;28;20188;-80
2023/10/30 06:36:05;;;;;;;0.10;0.10;;;12.70;99.90;;;;;;5067007;28;20173;-80
2023/10/30 06:38:30;;;;;;;0.10;0.10;;;12.80;99.90;;;;;;5068784;28;20193;-80
2023/10/30 06:40:56;;;;;;;0.10;0.10;;;12.80;99.90;;;;;;5066605;28;20209;-80
2023/10/30 06:43:22;;;;;;;0.10;0.10;;;12.80;99.90;;;;;;5066204;28;20188;-80
2023/10/30 06:45:47;;;;;;;0.10;0.10;;;12.80;99.90;;;;;;5068294;28;20568;-80
2023/10/30 06:48:13;;;;;;;0.10;0.10;;;12.80;99.90;;;;;;5064260;28;20178;-80
2023/10/30 06:50:38;;;;;;;0.10;0.10;;;12.70;99.90;;;;;;5067613;28;20205;-80
2023/10/30 06:53:04;;;;;;;0.10;0.10;;;12.70;99.90;;;;;;5065524;28;20204;-81
2023/10/30 06:55:31;;;;;;;0.10;0.10;;;12.70;99.90;;;;;;5061948;28;20716;-80
2023/10/30 06:57:57;;;;;;;0.10;0.10;;;12.70;99.90;;;;;;5061840;28;20223;-80
2023/10/30 07:00:23;;;;;;;0.00;0.00;;;12.70;99.90;;;;;;5058395;28;20243;-80
2023/10/30 07:02:48;;;;;;;0.10;0.10;;;12.70;99.90;;;;;;5065512;28;20205;-80
2023/10/30 07:05:14;;;;;;;0.10;0.10;;;12.70;99.90;;;;;;5066023;28;20203;-79
2023/10/30 07:07:41;;;;;;;0.10;0.10;;;12.70;99.90;;;;;;5066305;28;20481;-79
2023/10/30 07:10:07;;;;;;;0.10;0.10;;;12.70;99.90;;;;;;5065660;28;20182;-79
2023/10/30 07:12:32;;;;;;;0.10;0.10;;;12.70;99.90;;;;;;5059308;28;20190;-80
2023/10/30 07:14:58;;;;;;;0.10;0.10;;;12.80;99.90;;;;;;5060857;28;20187;-80
2023/10/30 07:17:23;;;;;;;0.10;0.10;;;12.90;99.90;;;;;;5064148;28;20202;-80
2023/10/30 07:19:50;;;;;;;0.10;0.10;;;12.90;99.90;;;;;;5064438;28;20192;-80
2023/10/30 07:22:15;;;;;;;0.10;0.10;;;13.00;99.90;;;;;;5057996;28;20217;-79
2023/10/30 07:24:41;;;;;;;0.10;0.10;;;12.90;99.90;;;;;;5066561;28;20214;-79
2023/10/30 07:27:07;;;;;;;0.10;0.10;;;12.80;99.90;;;;;;5056320;28;20189;-79
2023/10/30 07:29:32;;;;;;;0.10;0.10;;;12.90;99.90;;;;;;5067964;28;20566;-79
2023/10/30 07:31:58;;;;;;;0.10;0.10;;;12.80;99.90;;;;;;5062726;28;20209;-79
2023/10/30 07:34:24;;;;;;;0.10;0.10;;;12.80;99.90;;;;;;5067081;28;20199;-79
2023/10/30 07:36:50;;;;;;;0.10;0.10;;;12.80;99.90;;;;;;5067998;28;20209;-80
2023/10/30 07:39:15;;;;;;;0.10;0.10;;;12.90;99.90;;;;;;5062905;28;20600;-80
2023/10/30 07:41:41;;;;;;;0.10;0.10;;;12.90;99.90;;;;;;5065916;28;20224;-80
2023/10/30 07:44:07;;;;;;;0.10;0.10;;;13.00;99.90;;;;;;5060009;28;20250;-77
2023/10/30 07:46:33;;;;;;;0.10;0.10;;;13.00;99.90;;;;;;5068432;28;20268;-78
2023/10/30 07:49:03;;;;;;;0.00;0.00;;;13.00;99.90;;;;;;5069998;28;20292;-77
2023/10/30 07:51:28;;;;;;;0.10;0.10;;;13.00;99.90;;;;;;5070070;28;20252;-77
2023/10/30 07:53:54;;;;;;;0.10;0.10;;;13.00;99.90;;;;;;5069518;28;20272;-77
2023/10/30 07:56:19;;;;;;;0.10;0.10;;;13.10;99.90;;;;;;5064025;28;20189;-78
2023/10/30 07:58:45;;;;;;;0.10;0.10;;;13.10;99.90;;;;;;5069553;28;21071;-77
2023/10/30 08:01:11;;;;;;;0.00;0.00;;;13.20;99.90;;;;;;5068877;28;20209;-77
2023/10/30 08:03:36;;;;;;;0.10;0.10;;;13.20;99.90;;;;;;5063196;28;20881;-77
2023/10/30 08:06:02;;;;;;;0.10;0.10;;;13.20;99.90;;;;;;5067405;28;20308;-77
2023/10/30 08:08:28;;;;;;;0.10;0.10;;;13.20;99.90;;;;;;5070370;28;20650;-77
2023/10/30 08:10:54;;;;;;;0.10;0.10;;;13.20;99.90;;;;;;5068565;28;20688;-78
2023/10/30 08:13:20;;;;;;;0.10;0.10;;;13.20;99.90;;;;;;5061075;28;20190;-77
2023/10/30 08:15:45;;;;;;;0.10;0.10;;;13.20;99.90;;;;;;5063403;28;20197;-77
2023/10/30 08:18:11;;;;;;;0.10;0.10;;;13.20;99.90;;;;;;5067994;28;20187;-78
2023/10/30 08:20:36;;;;;;;0.10;0.10;;;13.20;99.90;;;;;;5070040;28;20223;-77
2023/10/30 08:23:02;;;;;;;0.10;0.10;;;13.30;99.90;;;;;;5068045;28;20670;-78
2023/10/30 08:25:27;;;;;;;0.10;0.10;;;13.30;99.90;;;;;;5061246;28;21211;-78
2023/10/30 08:27:53;;;;;;;0.10;0.10;;;13.20;99.90;;;;;;5066599;28;20185;-77
2023/10/30 08:30:18;;;;;;;0.10;0.10;;;13.30;99.90;;;;;;5067236;28;21443;-77
2023/10/30 08:32:45;;;;;;;0.10;0.10;;;13.30;99.90;;;;;;5064285;28;20193;-77
2023/10/30 08:35:10;;;;;;;0.10;0.10;;;13.30;99.90;;;;;;5063621;28;20197;-77
2023/10/30 08:37:36;;;;;;;0.10;0.10;;;13.40;99.90;;;;;;5065351;28;20190;-76
2023/10/30 08:40:01;;;;;;;0.10;0.10;;;13.40;99.90;;;;;;5059361;28;20183;-77
2023/10/30 08:42:27;;;;;;;0.10;0.10;;;13.50;99.90;;;;;;5066278;28;20226;-77
2023/10/30 08:44:52;;;;;;;0.10;0.10;;;13.50;99.90;;;;;;5067026;28;20225;-78
2023/10/30 08:47:18;;;;;;;0.10;0.10;;;13.40;99.90;;;;;;5067736;28;20202;-77
2023/10/30 08:49:43;;;;;;;0.10;0.10;;;13.50;99.90;;;;;;5069242;28;20190;-77
2023/10/30 08:52:09;;;;;;;0.10;0.10;;;13.60;99.90;;;;;;5069561;28;20207;-77
2023/10/30 08:54:35;;;;;;;0.10;0.10;;;13.60;99.90;;;;;;5068747;28;20679;-77
2023/10/30 08:57:00;;;;;;;0.10;0.10;;;13.60;99.90;;;;;;5069926;28;20232;-78
2023/10/30 08:59:25;;;;;;;0.10;0.10;;;13.70;99.90;;;;;;5058775;28;20183;-77
2023/10/30 09:01:51;;;;;;;0.10;0.10;;;13.70;99.90;;;;;;5068060;28;20212;-77
2023/10/30 09:04:16;;;;;;;0.10;0.10;;;13.50;99.90;;;;;;5058501;28;20252;-76
2023/10/30 09:06:42;;;;;;;0.10;0.10;;;13.60;99.90;;;;;;5064094;28;20178;-77
2023/10/30 09:09:08;;;;;;;0.10;0.10;;;13.70;99.90;;;;;;5067374;28;20215;-78
2023/10/30 09:11:34;;;;;;;0.10;0.10;;;13.70;99.90;;;;;;5068816;28;20260;-78
2023/10/30 09:14:00;;;;;;;0.10;0.10;;;13.80;99.90;;;;;;5069266;28;20187;-78
2023/10/30 09:16:25;;;;;;;0.10;0.10;;;13.80;99.90;;;;;;5065208;28;20191;-81
2023/10/30 09:18:52;;;;;;;0.10;0.10;;;13.80;99.90;;;;;;5068690;28;20186;-80
2023/10/30 09:21:18;;;;;;;0.10;0.10;;;13.90;99.90;;;;;;5063322;28;20207;-80
2023/10/30 09:23:43;;;;;;;0.10;0.10;;;13.60;99.90;;;;;;5070178;28;20174;-80
2023/10/30 09:26:14;;;;;;;0.10;0.10;;;13.60;99.90;;;;;;5069920;28;20313;-80
2023/10/30 09:28:39;;;;;;;0.10;0.10;;;13.80;99.90;;;;;;5069665;28;20165;-80
2023/10/30 09:31:05;;;;;;;0.10;0.10;;;13.70;99.90;;;;;;5069256;28;20216;-80
2023/10/30 09:33:32;;;;;;;0.10;0.10;;;13.40;99.90;;;;;;5069480;28;20655;-80
2023/10/30 09:35:57;;;;;;;0.10;0.10;;;13.40;99.90;;;;;;5067987;28;20203;-80
2023/10/30 09:38:25;;;;;;;0.10;0.10;;;13.20;99.90;;;;;;5068273;28;20218;-80
2023/10/30 09:40:58;;;;;;;0.10;0.10;;;13.40;99.90;;;;;;5067754;28;20198;-80
2023/10/30 09:43:28;;;;;;;0.10;0.10;;;13.50;99.90;;;;;;5069568;28;20750;-80
2023/10/30 09:45:59;;;;;;;0.10;0.10;;;13.70;99.90;;;;;;5067620;28;20846;-80
2023/10/30 09:48:28;;;;;;;0.10;0.10;;;13.90;99.90;;;;;;5059791;28;20213;-80
2023/10/30 09:50:54;;;;;;;0.10;0.10;;;13.80;99.90;;;;;;5067426;28;20203;-80
2023/10/30 09:53:20;;;;;;;0.00;0.00;;;13.80;99.90;;;;;;5067002;28;20191;-80
2023/10/30 09:55:47;;;;;;;0.10;0.10;;;13.80;99.90;;;;;;5067591;28;20288;-80
2023/10/30 09:58:15;;;;;;;0.10;0.10;;;14.00;99.90;;;;;;5066593;28;20194;-81
2023/10/30 10:00:44;;;;;;;0.10;0.10;;;13.80;99.90;;;;;;5065861;28;20307;-80
2023/10/30 10:03:10;;;;;;;0.10;0.10;;;14.00;99.90;;;;;;5067919;28;20281;-81
2023/10/30 10:05:35;;;;;;;0.10;0.10;;;14.10;99.90;;;;;;5067740;28;20251;-80
2023/10/30 10:08:01;;;;;;;0.10;0.10;;;14.20;99.90;;;;;;5068168;28;20258;-80
2023/10/30 10:10:27;;;;;;;0.10;0.10;;;14.30;99.90;;;;;;5067567;28;20220;-80
2023/10/30 10:12:55;;;;;;;0.10;0.10;;;14.30;99.90;;;;;;5067863;28;20196;-80
2023/10/30 10:15:20;;;;;;;0.10;0.10;;;14.40;99.90;;;;;;5066381;28;20195;-80
2023/10/30 10:17:46;;;;;;;0.10;0.10;;;14.40;99.90;;;;;;5069204;28;20186;-80
2023/10/30 10:20:12;;;;;;;0.10;0.10;;;14.60;99.90;;;;;;5068004;28;20183;-80
2023/10/30 10:22:39;;;;;;;0.10;0.10;;;14.70;99.90;;;;;;5065245;28;20222;-80
2023/10/30 10:25:15;;;;;;;0.10;0.10;;;14.70;99.90;;;;;;5066920;28;20718;-80
2023/10/30 10:27:41;;;;;;;0.10;0.10;;;14.80;99.90;;;;;;5067736;28;20176;-80
2023/10/30 10:30:07;;;;;;;0.10;0.10;;;14.80;99.90;;;;;;5066559;28;20577;-80
2023/10/30 10:32:32;;;;;;;0.10;0.10;;;14.80;99.90;;;;;;5058334;28;20204;-80
2023/10/30 10:35:02;;;;;;;0.10;0.10;;;14.90;99.90;;;;;;5064982;28;20204;-80
2023/10/30 10:37:28;;;;;;;0.10;0.10;;;14.90;99.90;;;;;;5066270;28;20204;-80
2023/10/30 10:39:54;;;;;;;0.10;0.10;;;15.10;99.90;;;;;;5067608;28;20195;-81
2023/10/30 10:42:22;;;;;;;0.10;0.10;;;15.20;99.90;;;;;;5066648;28;20221;-81
2023/10/30 10:44:49;;;;;;;0.10;0.10;;;15.30;99.90;;;;;;5068945;28;20295;-80
2023/10/30 10:47:16;;;;;;;0.10;0.10;;;15.40;99.90;;;;;;5067506;28;20188;-81
2023/10/30 10:49:42;;;;;;;0.10;0.10;;;15.20;99.90;;;;;;5062655;28;20177;-80
2023/10/30 10:52:13;;;;;;;0.10;0.10;;;15.10;99.90;;;;;;5069124;28;20288;-81
2023/10/30 10:54:47;;;;;;;0.10;0.10;;;15.20;99.90;;;;;;5067490;28;20189;-81
2023/10/30 10:57:18;;;;;;;0.10;0.10;;;15.30;99.90;;;;;;5067569;28;20195;-81
2023/10/30 10:59:45;;;;;;;0.10;0.10;;;15.20;99.90;;;;;;5067251;28;20195;-81
2023/10/30 11:02:21;;;;;;;0.10;0.10;;;14.90;99.90;;;;;;5066436;28;20211;-81
2023/10/30 11:04:51;;;;;;;0.10;0.10;;;14.80;99.90;;;;;;5065944;28;20891;-81
2023/10/30 11:07:27;;;;;;;0.10;0.10;;;14.40;99.90;;;;;;5067398;28;20187;-81
2023/10/30 11:10:00;;;;;;;0.10;0.10;;;14.40;99.90;;;;;;5066441;28;20176;-81
2023/10/30 11:12:41;;;;;;;0.10;0.10;;;14.50;99.90;;;;;;5066579;28;20225;-82
2023/10/30 11:15:16;;;;;;;0.10;0.10;;;14.70;99.90;;;;;;5068114;28;20616;-81
2023/10/30 11:18:04;;;;;;;0.10;0.10;;;14.20;99.90;;;;;;5066987;28;20175;-81
2023/10/30 11:20:30;;;;;;;0.10;0.10;;;14.30;99.90;;;;;;5066295;28;20242;-81
2023/10/30 11:22:55;;;;;;;0.10;0.10;;;14.70;99.90;;;;;;5068902;28;20185;-81
2023/10/30 11:25:36;;;;;;;0.10;0.10;;;15.00;99.90;;;;;;5065078;28;20208;-81
2023/10/30 11:28:02;;;;;;;0.10;0.10;;;15.00;99.90;;;;;;5070334;28;20175;-81
2023/10/30 11:30:32;;;;;;;0.10;0.10;;;15.20;99.90;;;;;;5086661;28;20247;-81
2023/10/30 11:32:58;;;;;;;0.10;0.10;;;15.00;99.90;;;;;;5071266;28;20719;-81
2023/10/30 11:35:28;;;;;;;0.10;0.10;;;15.00;99.90;;;;;;5064855;28;20284;-81
2023/10/30 11:37:54;;;;;;;0.10;0.10;;;15.10;99.90;;;;;;5063113;28;20280;-80
2023/10/30 11:40:20;;;;;;;0.10;0.10;;;15.10;99.90;;;;;;5069844;28;20187;-80
2023/10/30 11:42:46;;;;;;;0.10;0.10;;;15.20;99.90;;;;;;5064252;28;20234;-80
2023/10/30 11:45:22;;;;;;;0.10;0.10;;;15.40;99.90;;;;;;5066778;28;20566;-80
2023/10/30 11:47:57;;;;;;;0.10;0.10;;;15.00;99.90;;;;;;5067217;28;20267;-81
2023/10/30 11:50:38;;;;;;;0.10;0.10;;;15.20;99.90;;;;;;5071292;28;20210;-80
2023/10/30 11:53:12;;;;;;;0.10;0.10;;;15.40;99.90;;;;;;5071749;28;20177;-80
2023/10/30 11:55:41;;;;;;;0.10;0.10;;;15.30;99.90;;;;;;5070789;28;20235;-80
2023/10/30 11:58:11;;;;;;;0.10;0.10;;;15.50;99.90;;;;;;5065651;28;20211;-80
2023/10/30 12:00:44;;;;;;;0.10;0.10;;;15.70;99.90;;;;;;5068237;28;20265;-80
2023/10/30 12:03:10;;;;;;;0.10;0.10;;;15.40;99.90;;;;;;5072251;28;20176;-80
2023/10/30 12:05:36;;;;;;;0.10;0.10;;;15.10;99.90;;;;;;5063856;28;20211;-80
2023/10/30 12:08:04;;;;;;;0.10;0.10;;;15.10;99.90;;;;;;5070989;28;20539;-80
2023/10/30 12:10:30;;;;;;;0.10;0.10;;;14.90;99.90;;;;;;5070044;28;20231;-80
2023/10/30 12:12:56;;;;;;;0.10;0.10;;;14.90;99.90;;;;;;5069353;28;20492;-80
2023/10/30 12:15:21;;;;;;;0.10;0.10;;;14.90;99.90;;;;;;5065433;28;20207;-80
2023/10/30 12:17:47;;;;;;;0.00;0.00;;;14.90;99.90;;;;;;5068323;28;20185;-80
2023/10/30 12:20:12;;;;;;;0.10;0.10;;;14.60;99.90;;;;;;5067932;28;20196;-79
2023/10/30 12:22:42;;;;;;;0.10;0.10;;;14.70;99.90;;;;;;5063780;28;20552;-79
2023/10/30 12:25:08;;;;;;;0.10;0.10;;;14.80;99.90;;;;;;5069201;28;20710;-79
2023/10/30 12:27:33;;;;;;;0.10;0.10;;;15.00;99.90;;;;;;5071083;28;20264;-80
2023/10/30 12:30:09;;;;;;;0.10;0.10;;;14.80;99.90;;;;;;5061255;28;20268;-80
2023/10/30 12:32:35;;;;;;;0.10;0.10;;;14.70;99.90;;;;;;5070303;28;20532;-80
2023/10/30 12:35:16;;;;;;;0.10;0.10;;;14.90;99.90;;;;;;5067622;28;20183;-80
2023/10/30 12:37:42;;;;;;;0.10;0.10;;;15.00;99.90;;;;;;5062863;28;20184;-81
2023/10/30 12:40:09;;;;;;;0.10;0.10;;;15.20;99.90;;;;;;5070017;28;20661;-80
2023/10/30 12:42:37;;;;;;;0.10;0.10;;;15.20;99.90;;;;;;5068112;28;20196;-80
2023/10/30 12:45:06;;;;;;;0.10;0.10;;;15.10;99.90;;;;;;5068797;28;20285;-80